Time;durP1;ratioP1;P1;durP2;ratioP2;P2;SDS_P1;SDS_P2;PMS_P1;PMS_P2;Temp;Humidity;BMP_temperature;BMP_pressure;BME280_temperature;BME280_humidity;BME280_pressure;Samples;Min_cycle;Max_cycle;Signal;HPM_P1;HPM_P2
2022/01/12 00:00:23;;;;;;;9.38;5.55;;;;;;;;;;4995020;28;20023;-88
2022/01/12 00:02:50;;;;;;;8.13;5.55;;;;;;;;;;5011808;28;20040;-87
2022/01/12 00:05:17;;;;;;;9.63;5.80;;;;;;;;;;5007652;28;20030;-87
2022/01/12 00:07:46;;;;;;;9.10;5.85;;;;;;;;;;5008423;28;20026;-85
2022/01/12 00:10:12;;;;;;;7.80;5.15;;;;;;;;;;5005780;28;20034;-88
2022/01/12 00:12:39;;;;;;;9.20;5.40;;;;;;;;;;5007818;28;20022;-86
2022/01/12 00:15:09;;;;;;;8.30;5.53;;;;;;;;;;5008986;28;20394;-87
2022/01/12 00:17:35;;;;;;;8.98;5.68;;;;;;;;;;5006877;28;20103;-86
2022/01/12 00:20:01;;;;;;;7.43;5.25;;;;;;;;;;5002919;28;20031;-87
2022/01/12 00:22:28;;;;;;;9.07;4.68;;;;;;;;;;4986310;28;20027;-86
2022/01/12 00:33:16;;;;;;;7.90;5.32;;;;;;;;;;5005460;28;20042;-85
2022/01/12 00:35:44;;;;;;;7.28;4.93;;;;;;;;;;5004971;28;20090;-87
2022/01/12 00:38:10;;;;;;;11.88;5.65;;;;;;;;;;5004516;28;20026;-84
2022/01/12 00:40:41;;;;;;;10.57;5.38;;;;;;;;;;5006891;28;20031;-84
2022/01/12 00:43:07;;;;;;;9.70;6.00;;;;;;;;;;5007400;28;20036;-86
2022/01/12 00:45:34;;;;;;;9.15;5.18;;;;;;;;;;5006912;28;20042;-86
2022/01/12 00:48:00;;;;;;;10.80;5.72;;;;;;;;;;5003871;28;20037;-86
2022/01/12 00:50:26;;;;;;;9.02;5.65;;;;;;;;;;5006184;28;20520;-85
2022/01/12 00:52:53;;;;;;;9.57;5.68;;;;;;;;;;5005255;28;20050;-86
2022/01/12 00:55:19;;;;;;;9.00;5.75;;;;;;;;;;5005712;28;20026;-84
2022/01/12 00:57:45;;;;;;;8.98;5.55;;;;;;;;;;5005314;28;20022;-85
2022/01/12 01:00:12;;;;;;;10.73;5.70;;;;;;;;;;5004920;28;20079;-84
2022/01/12 01:02:38;;;;;;;9.80;5.68;;;;;;;;;;5003614;28;20030;-88
2022/01/12 01:05:05;;;;;;;9.05;5.15;;;;;;;;;;5009399;28;20086;-86
2022/01/12 01:07:31;;;;;;;9.05;5.07;;;;;;;;;;5007955;28;20030;-87
2022/01/12 01:10:04;;;;;;;9.07;4.60;;;;;;;;;;5009070;28;20060;-86
2022/01/12 01:12:32;;;;;;;9.82;5.25;;;;;;;;;;5007539;28;20669;-87
2022/01/12 01:25:41;;;;;;;8.57;5.30;;;;;;;;;;5009808;28;20097;-86
2022/01/12 01:28:07;;;;;;;8.65;5.25;;;;;;;;;;5012485;28;20173;-88
2022/01/12 01:30:35;;;;;;;6.55;4.65;;;;;;;;;;5008842;28;20098;-85
2022/01/12 01:33:06;;;;;;;9.52;5.43;;;;;;;;;;5007843;28;20493;-86
2022/01/12 01:35:33;;;;;;;9.23;5.88;;;;;;;;;;5008981;28;20029;-85
2022/01/12 01:38:01;;;;;;;11.18;5.72;;;;;;;;;;5007697;28;20042;-86
2022/01/12 01:40:42;;;;;;;9.05;6.07;;;;;;;;;;5011704;28;20027;-84
2022/01/12 01:43:24;;;;;;;8.95;5.10;;;;;;;;;;5010802;28;20030;-86
2022/01/12 01:54:18;;;;;;;11.88;6.25;;;;;;;;;;5012104;28;20107;-87
2022/01/12 01:56:44;;;;;;;10.73;6.43;;;;;;;;;;5012518;28;20065;-86
2022/01/12 01:59:11;;;;;;;9.82;5.97;;;;;;;;;;5010770;28;20027;-86
2022/01/12 02:01:36;;;;;;;11.10;6.20;;;;;;;;;;5012459;28;20042;-86
2022/01/12 02:04:04;;;;;;;8.70;6.10;;;;;;;;;;5007368;28;20026;-86
2022/01/12 02:06:31;;;;;;;12.75;6.05;;;;;;;;;;5005319;28;20038;-86
2022/01/12 02:08:57;;;;;;;8.82;5.85;;;;;;;;;;5007103;28;20049;-85
2022/01/12 02:11:27;;;;;;;11.88;6.20;;;;;;;;;;5005967;28;20031;-86
2022/01/12 02:13:53;;;;;;;9.33;6.10;;;;;;;;;;5006988;28;20117;-85
2022/01/12 02:16:25;;;;;;;9.88;5.95;;;;;;;;;;5009238;28;20266;-85
2022/01/12 02:40:30;;;;;;;10.18;5.57;;;;;;;;;;5006973;28;20026;-87
2022/01/12 02:43:09;;;;;;;9.98;5.43;;;;;;;;;;5005872;28;20065;-86
2022/01/12 02:53:42;;;;;;;9.52;4.95;;;;;;;;;;5007254;28;20038;-86
2022/01/12 02:56:10;;;;;;;11.75;6.18;;;;;;;;;;5004534;28;20076;-84
2022/01/12 02:58:36;;;;;;;8.25;5.28;;;;;;;;;;5004939;28;20498;-86
2022/01/12 03:01:30;;;;;;;8.57;5.43;;;;;;;;;;5004790;28;20126;-86
2022/01/12 03:03:54;;;;;;;10.35;5.43;;;;;;;;;;4987051;28;20081;-85
2022/01/12 03:06:24;;;;;;;11.18;6.00;;;;;;;;;;4985852;28;20054;-86
2022/01/12 03:08:51;;;;;;;9.23;5.35;;;;;;;;;;5001011;28;20030;-84
2022/01/12 03:11:18;;;;;;;8.48;5.13;;;;;;;;;;5016916;28;20030;-85
2022/01/12 03:13:44;;;;;;;10.93;5.45;;;;;;;;;;5018128;28;20011;-88
2022/01/12 03:16:16;;;;;;;8.90;4.93;;;;;;;;;;5016893;28;20046;-88
2022/01/12 03:18:42;;;;;;;9.50;5.15;;;;;;;;;;4996760;28;20163;-86
2022/01/12 03:21:09;;;;;;;8.52;4.82;;;;;;;;;;4984807;28;20045;-86
2022/01/12 03:23:35;;;;;;;8.98;4.88;;;;;;;;;;4982923;28;20050;-86
2022/01/12 03:26:01;;;;;;;7.28;4.53;;;;;;;;;;4987097;28;20054;-86
2022/01/12 03:28:27;;;;;;;8.80;5.03;;;;;;;;;;5001754;28;20026;-87
2022/01/12 03:30:58;;;;;;;8.10;5.07;;;;;;;;;;5006776;28;20073;-84
2022/01/12 03:38:41;;;;;;;8.60;5.05;;;;;;;;;;5003530;28;20097;-86
2022/01/12 03:41:07;;;;;;;6.55;4.72;;;;;;;;;;5000495;28;20041;-85
2022/01/12 03:43:33;;;;;;;8.48;5.68;;;;;;;;;;5000960;28;20126;-86
2022/01/12 03:45:59;;;;;;;10.23;5.32;;;;;;;;;;5001986;28;20038;-85
2022/01/12 03:48:25;;;;;;;9.05;5.35;;;;;;;;;;5000585;28;20038;-86
2022/01/12 03:50:54;;;;;;;7.32;4.78;;;;;;;;;;5000107;28;20034;-86
2022/01/12 03:53:20;;;;;;;7.47;5.13;;;;;;;;;;5001976;28;20376;-87
2022/01/12 03:55:46;;;;;;;8.48;5.00;;;;;;;;;;4999571;28;20061;-85
2022/01/12 03:58:13;;;;;;;12.02;5.10;;;;;;;;;;5000386;28;20026;-86
2022/01/12 04:00:39;;;;;;;8.85;5.00;;;;;;;;;;5001621;28;20037;-86
2022/01/12 04:03:07;;;;;;;9.38;5.00;;;;;;;;;;5000376;28;20565;-85
2022/01/12 04:08:23;;;;;;;7.72;4.72;;;;;;;;;;4995586;28;20038;-86
2022/01/12 04:10:53;;;;;;;8.85;5.13;;;;;;;;;;4996302;28;20030;-86
2022/01/12 04:13:22;;;;;;;5.40;3.40;;;;;;;;;;4996657;28;20018;-86
2022/01/12 04:15:50;;;;;;;8.68;4.75;;;;;;;;;;4996552;28;20030;-86
2022/01/12 04:18:16;;;;;;;9.90;5.20;;;;;;;;;;4994523;28;20041;-85
2022/01/12 04:20:47;;;;;;;7.57;4.30;;;;;;;;;;4996272;28;20026;-87
2022/01/12 04:23:17;;;;;;;7.72;4.88;;;;;;;;;;5001911;28;20093;-87
2022/01/12 04:25:43;;;;;;;7.60;4.97;;;;;;;;;;5001078;28;20022;-86
2022/01/12 04:28:09;;;;;;;9.43;5.60;;;;;;;;;;5006177;28;20041;-86
2022/01/12 04:30:35;;;;;;;7.45;4.82;;;;;;;;;;5001547;28;20026;-86
2022/01/12 04:33:01;;;;;;;7.80;5.03;;;;;;;;;;5001321;28;20037;-86
2022/01/12 04:35:32;;;;;;;7.70;4.72;;;;;;;;;;4999878;28;20506;-87
2022/01/12 04:37:58;;;;;;;6.82;4.55;;;;;;;;;;4999957;28;20022;-85
2022/01/12 04:40:24;;;;;;;7.53;4.93;;;;;;;;;;5000836;28;20073;-86
2022/01/12 04:42:52;;;;;;;8.98;5.38;;;;;;;;;;4999270;28;20054;-85
2022/01/12 04:45:36;;;;;;;9.50;5.72;;;;;;;;;;5000996;28;20034;-86
2022/01/12 04:48:19;;;;;;;11.20;5.90;;;;;;;;;;5001218;28;20034;-85
2022/01/12 04:50:46;;;;;;;13.82;5.43;;;;;;;;;;5001189;28;20030;-85
2022/01/12 04:53:14;;;;;;;9.25;5.38;;;;;;;;;;5000223;28;20026;-86
2022/01/12 04:55:43;;;;;;;8.93;5.50;;;;;;;;;;5000650;28;20390;-86
2022/01/12 04:58:09;;;;;;;10.45;5.43;;;;;;;;;;5000267;28;20081;-86
2022/01/12 05:00:35;;;;;;;8.30;5.15;;;;;;;;;;4999439;28;20026;-86
2022/01/12 05:13:43;;;;;;;12.02;6.10;;;;;;;;;;5005295;28;20045;-85
2022/01/12 05:16:12;;;;;;;11.13;6.53;;;;;;;;;;5001131;28;20046;-86
2022/01/12 05:18:39;;;;;;;14.80;6.78;;;;;;;;;;5007317;28;20045;-85
2022/01/12 05:21:05;;;;;;;15.43;6.97;;;;;;;;;;5011184;28;20034;-85
2022/01/12 05:23:32;;;;;;;16.50;7.20;;;;;;;;;;5013968;28;20045;-85
2022/01/12 05:25:58;;;;;;;12.73;6.57;;;;;;;;;;5010987;28;20026;-84
2022/01/12 05:28:25;;;;;;;14.77;6.72;;;;;;;;;;5009278;28;20037;-86
2022/01/12 05:30:51;;;;;;;10.85;6.00;;;;;;;;;;5011277;28;20599;-85
2022/01/12 05:33:18;;;;;;;12.18;6.57;;;;;;;;;;5003997;28;20038;-85
2022/01/12 05:35:44;;;;;;;10.77;5.72;;;;;;;;;;5004413;28;20092;-85
2022/01/12 05:38:12;;;;;;;10.30;5.72;;;;;;;;;;5005409;28;20094;-84
2022/01/12 05:40:42;;;;;;;13.52;6.80;;;;;;;;;;5004699;28;20158;-85
2022/01/12 05:43:08;;;;;;;11.68;5.40;;;;;;;;;;5004394;28;20109;-86
2022/01/12 05:45:38;;;;;;;10.70;5.85;;;;;;;;;;5005491;28;20037;-86
2022/01/12 05:50:33;;;;;;;12.07;6.20;;;;;;;;;;5005080;28;20597;-86
2022/01/12 05:53:02;;;;;;;12.90;6.47;;;;;;;;;;5005204;28;20023;-85
2022/01/12 05:55:28;;;;;;;12.65;6.38;;;;;;;;;;5005724;28;20046;-85
2022/01/12 05:57:54;;;;;;;15.07;7.03;;;;;;;;;;5002816;28;20099;-85
2022/01/12 06:00:22;;;;;;;9.85;5.93;;;;;;;;;;5003008;28;20562;-85
2022/01/12 06:02:48;;;;;;;10.82;6.25;;;;;;;;;;5002461;28;20093;-85
2022/01/12 06:05:18;;;;;;;11.00;6.15;;;;;;;;;;5000603;28;20030;-84
2022/01/12 06:07:45;;;;;;;11.35;6.13;;;;;;;;;;5007966;28;20124;-84
2022/01/12 06:10:11;;;;;;;9.65;5.57;;;;;;;;;;5009815;28;20412;-85
2022/01/12 06:12:39;;;;;;;11.55;6.07;;;;;;;;;;5002041;28;20030;-84
2022/01/12 06:15:06;;;;;;;8.60;5.63;;;;;;;;;;5001363;28;20054;-85
2022/01/12 06:17:32;;;;;;;10.38;6.50;;;;;;;;;;5001043;28;20034;-84
2022/01/12 06:19:58;;;;;;;13.73;6.47;;;;;;;;;;5003637;28;20084;-85
2022/01/12 06:22:24;;;;;;;8.00;4.70;;;;;;;;;;5003711;28;20544;-85
2022/01/12 06:24:55;;;;;;;10.45;5.78;;;;;;;;;;5005123;28;20384;-85
2022/01/12 06:27:23;;;;;;;11.80;6.07;;;;;;;;;;5008243;28;20050;-85
2022/01/12 06:30:01;;;;;;;11.13;6.22;;;;;;;;;;5011755;28;20023;-87
2022/01/12 06:32:27;;;;;;;13.60;6.30;;;;;;;;;;5018956;28;20042;-89
2022/01/12 06:34:53;;;;;;;12.35;6.95;;;;;;;;;;5019166;28;20086;-87
2022/01/12 06:37:19;;;;;;;11.88;6.55;;;;;;;;;;5019136;28;20018;-88
2022/01/12 06:39:46;;;;;;;9.95;5.47;;;;;;;;;;5018914;28;20019;-87
2022/01/12 06:42:12;;;;;;;8.82;5.55;;;;;;;;;;5019561;28;20030;-87
2022/01/12 06:44:38;;;;;;;12.48;6.13;;;;;;;;;;5019565;28;20019;-88
2022/01/12 06:47:04;;;;;;;9.63;5.97;;;;;;;;;;5019032;28;20053;-87
2022/01/12 06:49:30;;;;;;;10.63;6.38;;;;;;;;;;5019436;28;20045;-87
2022/01/12 06:51:59;;;;;;;11.80;6.88;;;;;;;;;;5019368;28;20022;-86
2022/01/12 06:54:26;;;;;;;14.13;7.28;;;;;;;;;;5019356;28;20038;-86
2022/01/12 06:56:51;;;;;;;12.40;6.70;;;;;;;;;;5018248;28;20026;-86
2022/01/12 06:59:17;;;;;;;12.15;6.97;;;;;;;;;;5019119;28;20015;-86
2022/01/12 07:01:44;;;;;;;10.40;6.20;;;;;;;;;;5019068;28;20038;-87
2022/01/12 07:04:10;;;;;;;12.02;7.05;;;;;;;;;;5019139;28;20017;-87
2022/01/12 07:06:36;;;;;;;12.07;6.32;;;;;;;;;;5017825;28;20085;-85
2022/01/12 07:09:03;;;;;;;15.18;7.05;;;;;;;;;;5018319;28;20015;-88
2022/01/12 07:11:29;;;;;;;16.90;7.72;;;;;;;;;;5018817;28;20034;-87
2022/01/12 07:13:55;;;;;;;14.52;7.53;;;;;;;;;;5018912;28;20020;-87
2022/01/12 07:16:21;;;;;;;12.35;6.68;;;;;;;;;;5016544;28;20042;-86
2022/01/12 07:18:47;;;;;;;16.98;8.43;;;;;;;;;;5017443;28;20046;-86
2022/01/12 07:21:13;;;;;;;12.45;7.32;;;;;;;;;;5016732;28;20030;-86
2022/01/12 07:23:39;;;;;;;12.52;7.25;;;;;;;;;;5017307;28;20015;-86
2022/01/12 07:26:05;;;;;;;14.20;7.82;;;;;;;;;;5016944;28;20018;-86
2022/01/12 07:28:31;;;;;;;12.40;7.15;;;;;;;;;;5016927;28;20026;-85
2022/01/12 07:30:57;;;;;;;12.20;6.72;;;;;;;;;;5017915;28;20102;-86
2022/01/12 07:33:25;;;;;;;11.60;6.70;;;;;;;;;;5018712;28;20030;-87
2022/01/12 07:35:51;;;;;;;10.95;6.80;;;;;;;;;;5018301;28;20045;-87
2022/01/12 07:38:17;;;;;;;14.07;7.35;;;;;;;;;;5012802;28;20046;-85
2022/01/12 07:40:43;;;;;;;12.45;6.55;;;;;;;;;;5002264;28;20027;-86
2022/01/12 07:43:09;;;;;;;11.40;6.53;;;;;;;;;;5001071;28;20026;-86
2022/01/12 07:45:36;;;;;;;11.73;6.32;;;;;;;;;;5001540;28;20034;-85
2022/01/12 07:48:02;;;;;;;11.25;6.03;;;;;;;;;;5004328;28;20041;-86
2022/01/12 07:50:31;;;;;;;10.15;5.93;;;;;;;;;;5017111;28;20046;-87
2022/01/12 07:52:57;;;;;;;10.73;6.68;;;;;;;;;;5017405;28;20011;-85
2022/01/12 07:55:23;;;;;;;14.73;7.07;;;;;;;;;;5010914;28;20034;-83
2022/01/12 07:57:51;;;;;;;11.10;5.95;;;;;;;;;;4997619;28;20026;-87
2022/01/12 08:00:20;;;;;;;9.80;5.75;;;;;;;;;;5003835;28;20090;-85
2022/01/12 08:02:46;;;;;;;10.13;6.50;;;;;;;;;;4998388;28;20033;-85
2022/01/12 08:05:12;;;;;;;14.52;7.15;;;;;;;;;;4998679;28;20031;-86
2022/01/12 08:07:39;;;;;;;12.07;6.47;;;;;;;;;;4995824;28;20018;-84
2022/01/12 08:10:07;;;;;;;10.35;6.80;;;;;;;;;;4994568;28;20447;-88
2022/01/12 08:12:33;;;;;;;11.05;6.80;;;;;;;;;;4994760;28;20027;-86
2022/01/12 08:14:59;;;;;;;9.63;5.40;;;;;;;;;;4997691;28;20038;-85
2022/01/12 08:17:25;;;;;;;12.02;6.32;;;;;;;;;;5001392;28;20480;-87
2022/01/12 08:19:54;;;;;;;11.50;6.30;;;;;;;;;;5000342;28;20057;-87
2022/01/12 08:25:15;;;;;;;11.48;6.38;;;;;;;;;;5002908;28;20253;-86
2022/01/12 08:27:42;;;;;;;10.80;5.82;;;;;;;;;;5000246;28;20033;-85
2022/01/12 08:30:27;;;;;;;10.75;5.15;;;;;;;;;;4995087;28;20026;-84
2022/01/12 08:32:53;;;;;;;6.00;3.95;;;;;;;;;;5000889;28;20026;-86
2022/01/12 08:35:24;;;;;;;7.10;4.65;;;;;;;;;;4998059;28;20481;-86
2022/01/12 08:38:03;;;;;;;5.75;3.65;;;;;;;;;;4994063;28;20113;-85
2022/01/12 08:40:29;;;;;;;5.40;3.90;;;;;;;;;;4998623;28;20113;-86
2022/01/12 08:42:56;;;;;;;5.57;3.63;;;;;;;;;;5004203;28;20026;-86
2022/01/12 08:45:22;;;;;;;5.20;3.80;;;;;;;;;;5001409;28;20097;-86
2022/01/12 08:47:48;;;;;;;5.05;3.65;;;;;;;;;;5000092;28;20049;-86
2022/01/12 08:50:26;;;;;;;5.75;3.67;;;;;;;;;;4999267;28;20037;-87
2022/01/12 08:53:06;;;;;;;5.35;3.28;;;;;;;;;;5002656;28;20027;-85
2022/01/12 08:55:40;;;;;;;5.20;3.33;;;;;;;;;;5001684;28;20049;-86
2022/01/12 08:58:09;;;;;;;5.65;3.40;;;;;;;;;;4998016;28;20025;-87
2022/01/12 09:00:35;;;;;;;4.65;3.38;;;;;;;;;;4998669;28;20157;-86
2022/01/12 09:03:02;;;;;;;6.03;3.60;;;;;;;;;;4996346;28;20034;-88
2022/01/12 09:05:37;;;;;;;5.70;3.60;;;;;;;;;;5003024;28;20030;-87
2022/01/12 09:08:06;;;;;;;5.47;3.63;;;;;;;;;;4999390;28;20031;-87
2022/01/12 09:10:32;;;;;;;4.85;3.47;;;;;;;;;;4997767;28;20120;-87
2022/01/12 09:13:01;;;;;;;6.18;3.35;;;;;;;;;;4998350;28;20069;-87
2022/01/12 09:15:37;;;;;;;4.22;3.28;;;;;;;;;;4998268;28;20092;-84
2022/01/12 09:18:08;;;;;;;4.18;3.17;;;;;;;;;;5003566;28;20042;-85
2022/01/12 09:21:09;;;;;;;6.10;2.83;;;;;;;;;;5002236;28;20041;-88
2022/01/12 09:23:50;;;;;;;4.03;3.15;;;;;;;;;;4949747;29;20079;-88
2022/01/12 09:26:16;;;;;;;4.15;2.70;;;;;;;;;;4924166;29;20023;-88
2022/01/12 09:28:42;;;;;;;3.55;2.63;;;;;;;;;;4985740;28;20517;-84
2022/01/12 09:31:11;;;;;;;3.60;2.88;;;;;;;;;;5008143;28;20057;-85
2022/01/12 09:33:37;;;;;;;4.25;3.13;;;;;;;;;;5009127;28;20026;-87
2022/01/12 09:36:03;;;;;;;4.13;3.08;;;;;;;;;;4996155;28;20422;-85
2022/01/12 09:38:30;;;;;;;4.28;3.20;;;;;;;;;;5002077;28;20390;-85
2022/01/12 09:40:56;;;;;;;4.32;2.90;;;;;;;;;;5001142;28;20034;-85
2022/01/12 09:43:28;;;;;;;3.50;2.75;;;;;;;;;;4999684;28;20037;-86
2022/01/12 09:45:59;;;;;;;8.27;3.08;;;;;;;;;;4997422;28;20521;-87
2022/01/12 09:48:33;;;;;;;4.00;2.67;;;;;;;;;;4998280;28;20045;-87
2022/01/12 09:51:04;;;;;;;3.55;2.95;;;;;;;;;;4996893;28;20031;-87
2022/01/12 09:53:36;;;;;;;3.90;3.17;;;;;;;;;;4997825;28;20049;-87
2022/01/12 09:56:20;;;;;;;4.95;3.33;;;;;;;;;;5001638;28;20081;-87
2022/01/12 09:58:48;;;;;;;3.97;3.13;;;;;;;;;;4996100;28;20030;-85
2022/01/12 10:01:22;;;;;;;5.20;3.17;;;;;;;;;;5001007;28;20631;-85
2022/01/12 10:03:48;;;;;;;5.43;4.07;;;;;;;;;;5002414;28;20027;-85
2022/01/12 10:06:14;;;;;;;6.75;4.55;;;;;;;;;;5003958;28;20027;-85
2022/01/12 10:08:41;;;;;;;5.82;3.92;;;;;;;;;;5005036;28;20050;-86
2022/01/12 10:11:12;;;;;;;5.68;3.95;;;;;;;;;;5006183;28;20034;-86
2022/01/12 10:13:40;;;;;;;5.18;3.72;;;;;;;;;;4999744;28;20030;-86
2022/01/12 10:16:11;;;;;;;6.57;3.97;;;;;;;;;;4998055;28;20038;-86
2022/01/12 10:18:50;;;;;;;8.32;4.57;;;;;;;;;;4997558;28;20406;-86
2022/01/12 10:21:37;;;;;;;5.32;4.40;;;;;;;;;;4996296;28;20026;-86
2022/01/12 10:24:05;;;;;;;6.35;4.18;;;;;;;;;;4996148;28;20023;-85
2022/01/12 10:26:32;;;;;;;6.10;3.72;;;;;;;;;;4996757;28;20041;-86
2022/01/12 10:29:05;;;;;;;5.07;3.55;;;;;;;;;;4996437;28;20038;-86
2022/01/12 10:31:44;;;;;;;5.95;3.95;;;;;;;;;;4998743;28;20200;-86
2022/01/12 10:34:14;;;;;;;6.32;4.65;;;;;;;;;;4999701;28;20506;-86
2022/01/12 10:36:41;;;;;;;9.02;4.03;;;;;;;;;;4998116;28;20088;-87
2022/01/12 10:39:08;;;;;;;7.22;4.15;;;;;;;;;;5000773;28;20033;-88
2022/01/12 10:41:37;;;;;;;6.18;3.97;;;;;;;;;;5000676;28;20026;-87
2022/01/12 10:44:05;;;;;;;7.80;4.07;;;;;;;;;;5001897;28;20125;-86
2022/01/12 10:46:34;;;;;;;4.97;3.55;;;;;;;;;;4996097;28;20121;-85
2022/01/12 10:49:00;;;;;;;4.45;3.60;;;;;;;;;;4977847;28;20487;-84
2022/01/12 10:51:30;;;;;;;6.18;3.55;;;;;;;;;;4988613;28;20049;-85
2022/01/12 10:54:10;;;;;;;7.90;4.50;;;;;;;;;;4984096;28;20019;-84
2022/01/12 10:56:36;;;;;;;5.85;3.88;;;;;;;;;;4981327;28;20023;-85
2022/01/12 10:59:02;;;;;;;6.68;4.32;;;;;;;;;;4982263;28;20037;-86
2022/01/12 11:01:31;;;;;;;6.20;4.40;;;;;;;;;;4982005;28;20050;-86
2022/01/12 11:03:58;;;;;;;5.45;4.20;;;;;;;;;;5000696;28;20022;-86
2022/01/12 11:06:25;;;;;;;8.10;4.28;;;;;;;;;;4998325;28;20044;-86
2022/01/12 11:08:57;;;;;;;7.15;3.90;;;;;;;;;;4999743;28;20030;-86
2022/01/12 11:11:36;;;;;;;;;;;;;;;;;;;;;
2022/01/12 11:14:03;;;;;;;5.45;4.00;;;;;;;;;;4993494;28;20028;-87
2022/01/12 11:16:29;;;;;;;6.32;4.05;;;;;;;;;;4994672;28;20093;-87
2022/01/12 11:19:05;;;;;;;6.30;4.35;;;;;;;;;;4995182;28;20117;-88
2022/01/12 11:21:35;;;;;;;5.93;3.90;;;;;;;;;;4999331;28;20098;-87
2022/01/12 11:24:04;;;;;;;8.57;4.10;;;;;;;;;;4998604;28;20482;-87
2022/01/12 11:26:31;;;;;;;5.07;3.88;;;;;;;;;;4999292;28;20038;-88
2022/01/12 11:28:58;;;;;;;7.88;4.57;;;;;;;;;;4998888;28;20030;-88
2022/01/12 11:31:42;;;;;;;6.35;4.47;;;;;;;;;;4997620;28;20034;-86
2022/01/12 11:34:17;;;;;;;6.57;4.20;;;;;;;;;;5010820;28;20062;-88
2022/01/12 11:36:49;;;;;;;6.28;4.50;;;;;;;;;;4994893;28;20026;-85
2022/01/12 11:39:16;;;;;;;5.68;3.92;;;;;;;;;;4994052;28;20074;-87
2022/01/12 11:41:43;;;;;;;4.97;4.05;;;;;;;;;;4997128;28;20043;-87
2022/01/12 11:44:12;;;;;;;6.05;4.22;;;;;;;;;;4996334;28;20033;-87
2022/01/12 11:46:41;;;;;;;8.23;4.82;;;;;;;;;;4996172;28;20023;-88
2022/01/12 11:52:16;;;;;;;5.90;3.95;;;;;;;;;;4999036;28;20039;-89
2022/01/12 11:54:45;;;;;;;5.55;4.00;;;;;;;;;;4999360;28;20033;-86
2022/01/12 11:57:18;;;;;;;5.57;3.90;;;;;;;;;;4995748;28;20256;-86
2022/01/12 11:59:52;;;;;;;9.10;4.35;;;;;;;;;;4995373;28;20015;-86
2022/01/12 12:02:19;;;;;;;5.45;4.00;;;;;;;;;;4992956;28;20482;-86
2022/01/12 12:04:59;;;;;;;5.25;4.10;;;;;;;;;;4994415;28;20026;-87
2022/01/12 12:07:26;;;;;;;6.55;3.67;;;;;;;;;;4992736;28;20057;-85
2022/01/12 12:10:09;;;;;;;6.55;4.30;;;;;;;;;;4994378;28;20026;-87
2022/01/12 12:12:36;;;;;;;4.57;3.88;;;;;;;;;;4994707;28;20034;-86
2022/01/12 12:15:04;;;;;;;6.55;4.00;;;;;;;;;;4995272;28;20023;-86
2022/01/12 12:17:35;;;;;;;5.00;3.78;;;;;;;;;;5001410;28;20019;-86
2022/01/12 12:20:02;;;;;;;7.28;4.30;;;;;;;;;;5016598;28;20018;-89
2022/01/12 12:22:32;;;;;;;8.45;4.45;;;;;;;;;;4993881;28;20491;-87
2022/01/12 12:24:58;;;;;;;5.43;3.92;;;;;;;;;;4993271;28;20045;-86
2022/01/12 12:27:28;;;;;;;6.47;4.13;;;;;;;;;;4994175;28;20027;-86
2022/01/12 12:29:54;;;;;;;6.50;4.38;;;;;;;;;;4993910;28;20018;-85
2022/01/12 12:32:21;;;;;;;6.45;4.40;;;;;;;;;;4998133;28;20044;-86
2022/01/12 12:34:48;;;;;;;9.02;5.22;;;;;;;;;;4996917;28;20061;-86
2022/01/12 12:37:17;;;;;;;7.53;4.80;;;;;;;;;;4993151;28;20023;-86
2022/01/12 12:39:45;;;;;;;9.20;4.82;;;;;;;;;;4996892;28;20022;-87
2022/01/12 12:42:21;;;;;;;6.80;4.70;;;;;;;;;;5001324;28;20042;-84
2022/01/12 12:44:48;;;;;;;7.40;5.05;;;;;;;;;;5003327;28;20046;-85
2022/01/12 12:47:17;;;;;;;6.85;4.47;;;;;;;;;;5005549;28;20506;-84
2022/01/12 12:49:44;;;;;;;8.40;5.10;;;;;;;;;;5007849;28;20081;-84
2022/01/12 12:52:11;;;;;;;10.95;4.70;;;;;;;;;;5006734;28;20034;-83
2022/01/12 12:54:43;;;;;;;7.75;4.57;;;;;;;;;;5004027;28;20018;-85
2022/01/12 12:57:11;;;;;;;9.98;4.85;;;;;;;;;;4998910;28;20517;-84
2022/01/12 12:59:37;;;;;;;7.80;4.07;;;;;;;;;;5000106;28;20041;-85
2022/01/12 13:02:09;;;;;;;8.27;4.53;;;;;;;;;;5001626;28;20018;-84
2022/01/12 13:04:35;;;;;;;7.10;4.85;;;;;;;;;;5001464;28;20046;-84
2022/01/12 13:07:10;;;;;;;6.15;4.32;;;;;;;;;;4998981;28;20085;-85
2022/01/12 13:09:37;;;;;;;8.52;4.53;;;;;;;;;;4997870;28;20041;-85
2022/01/12 13:12:03;;;;;;;9.98;4.55;;;;;;;;;;4998340;28;20030;-86
2022/01/12 13:14:29;;;;;;;7.47;4.32;;;;;;;;;;5000532;28;20030;-85
2022/01/12 13:16:55;;;;;;;9.43;5.25;;;;;;;;;;4997653;28;20026;-82
2022/01/12 13:21:06;;;;;;;7.55;4.78;;;;;;;;;;4998297;28;20026;-84
2022/01/12 13:22:33;;;;;;;8.98;4.88;;;;;;;;;;4999102;28;20027;-87
2022/01/12 13:25:01;;;;;;;9.15;5.10;;;;;;;;;;4997013;28;20026;-85
2022/01/12 13:27:27;;;;;;;5.97;4.20;;;;;;;;;;4999771;28;20038;-86
2022/01/12 13:29:54;;;;;;;8.23;5.22;;;;;;;;;;4999685;28;20030;-85
2022/01/12 13:32:20;;;;;;;6.65;4.68;;;;;;;;;;5006711;28;20466;-86
2022/01/12 13:34:56;;;;;;;7.72;4.47;;;;;;;;;;5013523;28;20042;-88
2022/01/12 13:37:22;;;;;;;7.38;4.85;;;;;;;;;;4996489;28;20034;-87
2022/01/12 13:40:01;;;;;;;7.10;4.13;;;;;;;;;;4997329;28;20027;-86
2022/01/12 13:42:27;;;;;;;10.95;4.38;;;;;;;;;;4997353;28;20022;-86
2022/01/12 13:45:05;;;;;;;8.43;4.60;;;;;;;;;;4999835;28;20403;-86
2022/01/12 13:47:35;;;;;;;6.00;3.75;;;;;;;;;;5002162;28;20165;-85
2022/01/12 13:50:03;;;;;;;6.00;4.23;;;;;;;;;;5002288;28;20029;-86
2022/01/12 13:52:29;;;;;;;8.85;3.90;;;;;;;;;;5005837;28;20030;-85
2022/01/12 13:54:55;;;;;;;7.25;4.53;;;;;;;;;;5006462;28;20038;-86
2022/01/12 13:57:26;;;;;;;8.57;3.97;;;;;;;;;;5002862;28;20032;-86
2022/01/12 13:59:53;;;;;;;5.85;3.72;;;;;;;;;;5005246;28;20027;-85
2022/01/12 14:02:20;;;;;;;4.88;3.72;;;;;;;;;;5002661;28;20409;-85
2022/01/12 14:04:58;;;;;;;6.45;3.80;;;;;;;;;;5003829;28;20103;-85
2022/01/12 14:07:25;;;;;;;4.88;3.58;;;;;;;;;;4998015;28;20120;-86
2022/01/12 14:09:55;;;;;;;5.38;3.90;;;;;;;;;;5000062;28;20097;-84
2022/01/12 14:12:24;;;;;;;10.02;4.20;;;;;;;;;;4999188;28;20022;-86
2022/01/12 14:14:57;;;;;;;5.63;3.70;;;;;;;;;;5002821;28;20037;-86
2022/01/12 14:17:23;;;;;;;5.70;3.65;;;;;;;;;;5007533;28;20112;-87
2022/01/12 14:19:53;;;;;;;6.20;4.00;;;;;;;;;;5005208;28;20023;-86
2022/01/12 14:22:23;;;;;;;6.18;3.63;;;;;;;;;;5002264;28;20034;-87
2022/01/12 14:24:57;;;;;;;4.10;3.30;;;;;;;;;;4999433;28;20023;-86
2022/01/12 14:27:23;;;;;;;5.45;3.88;;;;;;;;;;4999188;28;20033;-86
2022/01/12 14:29:49;;;;;;;4.50;3.47;;;;;;;;;;5010395;28;20017;-89
2022/01/12 14:32:15;;;;;;;4.90;3.45;;;;;;;;;;5016466;28;20042;-86
2022/01/12 14:34:41;;;;;;;5.53;3.35;;;;;;;;;;4997434;28;20106;-86
2022/01/12 14:37:09;;;;;;;5.63;2.80;;;;;;;;;;4997262;28;20419;-84
2022/01/12 14:39:35;;;;;;;5.18;3.65;;;;;;;;;;4993788;28;20121;-87
2022/01/12 14:42:04;;;;;;;4.43;3.33;;;;;;;;;;4996305;28;20031;-86
2022/01/12 14:44:38;;;;;;;6.00;3.78;;;;;;;;;;4998486;28;20069;-86
2022/01/12 14:47:04;;;;;;;5.68;4.20;;;;;;;;;;4998001;28;20029;-88
2022/01/12 14:49:30;;;;;;;5.72;4.40;;;;;;;;;;4996309;28;20464;-87
2022/01/12 14:51:56;;;;;;;5.07;3.08;;;;;;;;;;4994066;28;20030;-86
2022/01/12 14:54:22;;;;;;;3.63;3.10;;;;;;;;;;4997832;28;20505;-85
2022/01/12 14:56:48;;;;;;;4.70;3.28;;;;;;;;;;4995433;28;20062;-86
2022/01/12 14:59:14;;;;;;;5.95;3.38;;;;;;;;;;4994679;28;20022;-86
2022/01/12 15:01:41;;;;;;;4.85;3.45;;;;;;;;;;4996083;28;20446;-86
2022/01/12 15:04:07;;;;;;;5.45;3.40;;;;;;;;;;4995734;28;20061;-85
2022/01/12 15:06:33;;;;;;;5.50;3.45;;;;;;;;;;4995625;28;20031;-85
2022/01/12 15:09:00;;;;;;;5.97;3.97;;;;;;;;;;4996637;28;20026;-85
2022/01/12 15:11:26;;;;;;;5.05;3.85;;;;;;;;;;4999839;28;20521;-87
2022/01/12 15:13:55;;;;;;;5.47;2.95;;;;;;;;;;4997595;28;20026;-86
2022/01/12 15:16:22;;;;;;;7.32;3.92;;;;;;;;;;4994872;28;20026;-86
2022/01/12 15:18:48;;;;;;;4.53;2.95;;;;;;;;;;5001269;28;20029;-88
2022/01/12 15:21:15;;;;;;;4.38;3.40;;;;;;;;;;5000985;28;20041;-88
2022/01/12 15:23:41;;;;;;;10.88;3.17;;;;;;;;;;4997234;28;20486;-89
2022/01/12 15:26:16;;;;;;;7.45;3.33;;;;;;;;;;4993119;28;20036;-85
2022/01/12 15:28:43;;;;;;;11.80;3.38;;;;;;;;;;4993645;28;20053;-86
2022/01/12 15:31:09;;;;;;;4.85;2.95;;;;;;;;;;4994654;28;20079;-86
2022/01/12 15:33:35;;;;;;;4.00;3.03;;;;;;;;;;4992996;28;20023;-87
2022/01/12 15:36:01;;;;;;;5.38;3.28;;;;;;;;;;5015114;28;20017;-87
2022/01/12 15:38:28;;;;;;;8.60;3.40;;;;;;;;;;5016499;28;20029;-88
2022/01/12 15:40:54;;;;;;;9.40;3.33;;;;;;;;;;5006568;28;20109;-87
2022/01/12 15:43:20;;;;;;;7.38;3.60;;;;;;;;;;5001718;28;20026;-87
2022/01/12 15:45:46;;;;;;;10.65;3.95;;;;;;;;;;5000798;28;20486;-87
2022/01/12 15:48:14;;;;;;;7.22;3.42;;;;;;;;;;4998520;28;20449;-86
2022/01/12 15:50:41;;;;;;;6.63;3.75;;;;;;;;;;5001021;28;20034;-87
2022/01/12 15:53:07;;;;;;;7.25;4.38;;;;;;;;;;5001428;28;20030;-86
2022/01/12 15:55:33;;;;;;;8.85;4.20;;;;;;;;;;4999031;28;20026;-86
2022/01/12 15:57:59;;;;;;;6.90;3.80;;;;;;;;;;4999679;28;20038;-87
2022/01/12 16:00:26;;;;;;;7.07;4.15;;;;;;;;;;5008635;28;20014;-87
2022/01/12 16:02:52;;;;;;;6.90;4.00;;;;;;;;;;5016201;28;20022;-89
2022/01/12 16:05:18;;;;;;;6.47;3.83;;;;;;;;;;5002156;28;20343;-88
2022/01/12 16:07:45;;;;;;;5.60;3.60;;;;;;;;;;5000875;28;20082;-86
2022/01/12 16:10:11;;;;;;;6.00;3.58;;;;;;;;;;4999317;28;20026;-86
2022/01/12 16:12:37;;;;;;;5.57;3.35;;;;;;;;;;4995762;28;20467;-86